Time;durP1;ratioP1;P1;durP2;ratioP2;P2;SDS_P1;SDS_P2;PMS_P1;PMS_P2;Temp;Humidity;BMP_temperature;BMP_pressure;BME280_temperature;BME280_humidity;BME280_pressure;Samples;Min_cycle;Max_cycle;Signal;HPM_P1;HPM_P2
2023/09/22 00:00:24;;;;;;;0.80;0.45;;;;;;;22.22;56.88;99097.59;5347439;26;34245;-81
2023/09/22 00:02:52;;;;;;;0.37;0.35;;;;;;;22.20;56.95;99099.59;5367872;26;33717;-81
2023/09/22 00:05:20;;;;;;;2.12;0.50;;;;;;;22.15;57.24;99100.06;5367318;26;34096;-81
2023/09/22 00:07:48;;;;;;;0.20;0.20;;;;;;;22.18;57.26;99091.69;5367775;26;34613;-80
2023/09/22 00:10:17;;;;;;;0.85;0.45;;;;;;;21.99;57.85;99091.88;5367694;26;34576;-80
2023/09/22 00:12:45;;;;;;;1.10;0.32;;;;;;;21.94;58.11;99089.66;5349112;26;33145;-80
2023/09/22 00:15:13;;;;;;;6.55;2.47;;;;;;;21.88;58.56;99090.25;5348823;26;34747;-80
2023/09/22 00:17:41;;;;;;;0.47;0.47;;;;;;;21.96;58.22;99094.84;5348936;26;32754;-80
2023/09/22 00:20:10;;;;;;;1.42;0.88;;;;;;;21.96;58.53;99092.16;5366382;26;34613;-80
2023/09/22 00:22:39;;;;;;;0.98;0.57;;;;;;;22.13;57.94;99096.69;5349451;26;32593;-80
2023/09/22 00:25:09;;;;;;;0.52;0.52;;;;;;;22.17;57.92;99100.75;5367848;26;34762;-80
2023/09/22 00:27:37;;;;;;;0.40;0.40;;;;;;;22.23;57.59;99100.13;5349468;26;33812;-80
2023/09/22 00:30:09;;;;;;;1.45;1.02;;;;;;;22.24;57.89;99095.59;5349939;26;33862;-80
2023/09/22 00:32:38;;;;;;;0.43;0.25;;;;;;;22.21;58.28;99095.88;5349778;26;34407;-80
2023/09/22 00:35:10;;;;;;;0.52;0.52;;;;;;;22.22;58.13;99097.59;5366717;26;32734;-80
2023/09/22 00:37:41;;;;;;;1.60;0.80;;;;;;;22.17;58.58;99094.50;5349550;26;33921;-81
2023/09/22 00:40:10;;;;;;;0.20;0.20;;;;;;;22.14;58.64;99094.84;5368359;26;34051;-80
2023/09/22 00:42:38;;;;;;;0.10;0.10;;;;;;;22.06;58.92;99084.00;5349054;26;33571;-81
2023/09/22 00:45:06;;;;;;;0.70;0.70;;;;;;;22.12;58.73;99080.69;5367560;26;34573;-81
2023/09/22 00:47:34;;;;;;;0.52;0.52;;;;;;;22.10;58.79;99085.38;5330300;26;33869;-81
2023/09/22 00:50:03;;;;;;;0.60;0.60;;;;;;;21.95;59.15;99074.34;5347753;26;34129;-81
2023/09/22 00:52:30;;;;;;;5.68;0.80;;;;;;;22.01;59.25;99079.09;5367440;26;33435;-80
2023/09/22 00:54:59;;;;;;;0.82;0.82;;;;;;;22.02;59.15;99080.78;5349106;26;33970;-81
2023/09/22 00:57:27;;;;;;;1.27;1.17;;;;;;;21.89;59.60;99088.44;5367486;26;33927;-81
2023/09/22 00:59:56;;;;;;;1.08;1.00;;;;;;;21.89;59.86;99091.12;5367369;26;34212;-81
2023/09/22 01:02:25;;;;;;;0.95;0.75;;;;;;;21.87;59.82;99087.72;5349055;26;34207;-81
2023/09/22 01:04:53;;;;;;;3.33;1.27;;;;;;;21.73;60.08;99087.28;5367815;26;34001;-80
2023/09/22 01:07:21;;;;;;;0.37;0.37;;;;;;;21.73;60.24;99092.66;5348643;26;33745;-80
2023/09/22 01:09:49;;;;;;;0.65;0.65;;;;;;;21.73;60.12;99098.03;5366079;26;34868;-80
2023/09/22 01:12:17;;;;;;;0.20;0.20;;;;;;;21.79;60.01;99095.72;5367180;26;32407;-81
2023/09/22 01:14:45;;;;;;;1.62;0.82;;;;;;;21.75;60.01;99095.22;5348814;26;33574;-81
2023/09/22 01:17:13;;;;;;;0.57;0.20;;;;;;;21.77;60.07;99098.56;5367190;26;34181;-80
2023/09/22 01:19:42;;;;;;;0.88;0.73;;;;;;;21.89;59.55;99091.97;5364856;26;33318;-81
2023/09/22 01:22:11;;;;;;;0.52;0.35;;;;;;;21.88;59.43;99095.63;5365221;26;34310;-81
2023/09/22 01:24:39;;;;;;;2.42;0.75;;;;;;;21.93;59.15;99092.47;5347947;26;33697;-81
2023/09/22 01:27:07;;;;;;;0.47;0.47;;;;;;;21.81;59.78;99093.72;5367620;26;34792;-80
2023/09/22 01:29:36;;;;;;;0.40;0.40;;;;;;;21.88;59.44;99089.41;5367544;26;34256;-81
2023/09/22 01:32:07;;;;;;;1.70;1.60;;;;;;;21.93;59.28;99092.47;5347849;26;32866;-80
2023/09/22 01:34:35;;;;;;;2.97;1.00;;;;;;;21.84;59.69;99088.91;5365918;26;33501;-81
2023/09/22 01:37:07;;;;;;;1.20;0.55;;;;;;;21.90;59.23;99085.56;5348919;26;34301;-80
2023/09/22 01:39:36;;;;;;;0.43;0.43;;;;;;;21.71;60.01;99091.12;5349871;26;34356;-80
2023/09/22 01:42:04;;;;;;;0.93;0.77;;;;;;;21.75;59.73;99087.16;5367375;26;33482;-80
2023/09/22 01:44:32;;;;;;;0.65;0.65;;;;;;;21.75;59.61;99095.22;5367449;26;34554;-80
2023/09/22 01:46:59;;;;;;;0.20;0.20;;;;;;;21.64;60.23;99088.22;5348910;26;33347;-80
2023/09/22 01:49:27;;;;;;;1.42;1.05;;;;;;;21.64;59.96;99090.06;5348420;26;34005;-80
2023/09/22 01:51:55;;;;;;;0.55;0.55;;;;;;;21.55;60.30;99094.50;5367273;26;33620;-80
2023/09/22 01:54:23;;;;;;;0.15;0.15;;;;;;;21.44;61.02;99092.06;5347772;26;33658;-80
2023/09/22 01:56:50;;;;;;;0.15;0.15;;;;;;;21.45;60.83;99094.59;5366507;26;33140;-80
2023/09/22 01:59:18;;;;;;;0.10;0.08;;;;;;;21.45;60.74;99093.75;5348861;26;33937;-80
2023/09/22 02:01:46;;;;;;;1.85;0.88;;;;;;;21.52;60.52;99094.84;5348244;26;33291;-80
2023/09/22 02:04:13;;;;;;;21.02;2.62;;;;;;;21.52;59.85;99094.84;5348471;26;32757;-80
2023/09/22 02:06:42;;;;;;;0.32;0.30;;;;;;;21.34;60.28;99092.13;5330243;26;33117;-79
2023/09/22 02:09:09;;;;;;;0.28;0.28;;;;;;;21.22;61.02;99094.19;5330145;26;33329;-80
2023/09/22 02:11:37;;;;;;;1.33;0.95;;;;;;;21.29;60.76;99094.41;5347968;26;34170;-80
2023/09/22 02:14:07;;;;;;;0.10;0.10;;;;;;;21.24;61.25;99091.34;5367289;26;33867;-80
2023/09/22 02:16:36;;;;;;;0.62;0.60;;;;;;;21.23;61.29;99095.03;5366780;26;33477;-80
2023/09/22 02:19:04;;;;;;;0.22;0.22;;;;;;;21.10;61.57;99095.38;5348460;26;33740;-79
2023/09/22 02:21:32;;;;;;;0.40;0.40;;;;;;;21.13;61.44;99100.47;5348292;26;33897;-80
2023/09/22 02:24:01;;;;;;;1.25;1.08;;;;;;;21.17;61.25;99098.28;5348805;26;34319;-79
2023/09/22 02:26:29;;;;;;;0.30;0.30;;;;;;;21.10;61.73;99098.06;5367859;26;33566;-79
2023/09/22 02:28:57;;;;;;;0.62;0.62;;;;;;;21.01;62.19;99092.75;5366939;26;35981;-80
2023/09/22 02:31:26;;;;;;;0.28;0.28;;;;;;;21.02;62.26;99097.97;5367315;26;33301;-80
2023/09/22 02:33:54;;;;;;;1.33;1.10;;;;;;;20.97;62.57;99090.38;5366192;26;33992;-79
2023/09/22 02:36:23;;;;;;;0.50;0.50;;;;;;;21.01;62.49;99085.56;5366207;26;33945;-80
2023/09/22 02:38:51;;;;;;;1.45;0.43;;;;;;;21.01;62.44;99082.03;5348200;26;34576;-80
2023/09/22 02:41:19;;;;;;;0.62;0.43;;;;;;;21.02;62.46;99081.88;5348674;26;33685;-81
2023/09/22 02:43:47;;;;;;;0.90;0.80;;;;;;;21.11;62.21;99077.44;5363828;26;91979;-81
2023/09/22 02:46:15;;;;;;;0.30;0.30;;;;;;;21.03;62.72;99075.53;5348636;26;33313;-81
2023/09/22 02:48:46;;;;;;;0.85;0.30;;;;;;;20.99;63.13;99073.28;5348630;26;34187;-81
2023/09/22 02:51:14;;;;;;;0.85;0.85;;;;;;;21.08;62.61;99067.84;5329277;26;32967;-81
2023/09/22 02:53:41;;;;;;;0.20;0.20;;;;;;;21.06;62.62;99069.84;5348136;26;35020;-80
2023/09/22 02:56:09;;;;;;;0.20;0.20;;;;;;;20.94;63.23;99063.84;5366587;26;33715;-81
2023/09/22 02:58:37;;;;;;;0.28;0.28;;;;;;;20.83;63.82;99060.50;5330539;26;34681;-81
2023/09/22 03:01:08;;;;;;;0.30;0.30;;;;;;;20.93;63.50;99072.03;5367057;26;33649;-80
2023/09/22 03:03:43;;;;;;;1.50;0.93;;;;;;;20.97;63.45;99068.06;5367507;26;34584;-80
2023/09/22 03:06:12;;;;;;;0.60;0.60;;;;;;;20.96;63.66;99077.09;5367762;26;34026;-80
2023/09/22 03:08:41;;;;;;;1.55;0.93;;;;;;;21.06;63.37;99072.53;5348838;26;34230;-81
2023/09/22 03:11:09;;;;;;;1.80;1.00;;;;;;;21.22;62.67;99067.34;5367313;26;34559;-80
2023/09/22 03:13:40;;;;;;;0.65;0.65;;;;;;;21.29;62.47;99072.09;5348981;26;33532;-81
2023/09/22 03:16:09;;;;;;;0.28;0.28;;;;;;;21.22;62.67;99072.72;5347616;26;32826;-79
2023/09/22 03:18:37;;;;;;;2.60;1.23;;;;;;;21.02;63.65;99073.81;5348290;26;33981;-80
2023/09/22 03:21:05;;;;;;;1.52;1.15;;;;;;;21.05;63.23;99060.09;5348150;26;32488;-81
2023/09/22 03:23:32;;;;;;;0.10;0.10;;;;;;;21.03;63.30;99062.09;5348693;26;34685;-80
2023/09/22 03:26:03;;;;;;;1.95;0.37;;;;;;;20.98;63.29;99061.69;5348635;26;33728;-81
2023/09/22 03:28:32;;;;;;;0.77;0.65;;;;;;;21.08;63.00;99059.81;5367396;26;34166;-80
2023/09/22 03:31:00;;;;;;;0.45;0.45;;;;;;;20.91;63.80;99064.16;5367072;26;33332;-81
2023/09/22 03:33:29;;;;;;;1.12;1.00;;;;;;;21.14;62.92;99059.19;5368537;26;33902;-80
2023/09/22 03:35:57;;;;;;;0.22;0.22;;;;;;;21.35;62.09;99063.44;5347968;26;33600;-80
2023/09/22 03:38:28;;;;;;;0.65;0.60;;;;;;;20.84;63.81;99064.88;5367718;26;33734;-80
2023/09/22 03:41:00;;;;;;;1.00;0.80;;;;;;;20.85;63.85;99070.13;5349943;26;34407;-80
2023/09/22 03:43:28;;;;;;;0.75;0.73;;;;;;;21.25;62.40;99059.97;5367516;26;34677;-80
2023/09/22 03:45:56;;;;;;;0.55;0.55;;;;;;;21.03;62.97;99061.22;5365290;26;33693;-80
2023/09/22 03:48:24;;;;;;;0.45;0.45;;;;;;;20.66;64.38;99063.03;5367526;26;34174;-81
2023/09/22 03:50:53;;;;;;;0.57;0.55;;;;;;;20.83;64.07;99068.56;5330719;26;32479;-80
2023/09/22 03:53:22;;;;;;;0.30;0.30;;;;;;;20.62;64.76;99064.31;5349537;26;33634;-80
2023/09/22 03:55:50;;;;;;;2.33;1.17;;;;;;;20.46;65.71;99064.06;5348863;26;34360;-80
2023/09/22 03:58:20;;;;;;;5.97;2.05;;;;;;;20.88;64.24;99052.84;5367020;26;33871;-80
2023/09/22 04:00:48;;;;;;;0.60;0.60;;;;;;;20.41;65.68;99064.53;5367801;26;33197;-80
2023/09/22 04:03:17;;;;;;;4.43;1.15;;;;;;;20.68;64.80;99055.66;5348745;26;33108;-80
2023/09/22 04:05:45;;;;;;;0.40;0.40;;;;;;;20.29;66.28;99073.72;5367892;26;33516;-80
2023/09/22 04:08:12;;;;;;;2.53;1.00;;;;;;;20.52;65.33;99062.66;5367875;26;34187;-80
2023/09/22 04:10:41;;;;;;;1.37;1.27;;;;;;;20.20;66.63;99061.19;5311817;26;32394;-80
2023/09/22 04:13:09;;;;;;;0.43;0.43;;;;;;;20.13;66.76;99069.00;5348810;26;32800;-80
2023/09/22 04:15:36;;;;;;;2.58;1.05;;;;;;;20.19;66.67;99067.56;5348756;26;33045;-80
2023/09/22 04:18:06;;;;;;;1.58;1.17;;;;;;;20.59;65.77;99053.88;5367819;26;33599;-80
2023/09/22 04:20:37;;;;;;;0.17;0.17;;;;;;;20.37;66.39;99075.69;5329550;26;33017;-80
2023/09/22 04:23:05;;;;;;;1.45;1.35;;;;;;;20.42;67.00;99068.03;5349162;26;34163;-80
2023/09/22 04:25:36;;;;;;;0.40;0.40;;;;;;;20.49;66.50;99082.56;5348849;26;32727;-80
2023/09/22 04:28:11;;;;;;;12.10;1.37;;;;;;;20.42;66.75;99074.25;5349371;26;33199;-80
2023/09/22 04:30:43;;;;;;;1.20;1.08;;;;;;;20.25;67.42;99074.16;5348507;26;32609;-80
2023/09/22 04:33:11;;;;;;;0.32;0.20;;;;;;;20.55;66.50;99068.56;5367325;26;32683;-81
2023/09/22 04:35:40;;;;;;;1.90;1.37;;;;;;;20.38;67.44;99074.69;5349265;26;33660;-80
2023/09/22 04:38:11;;;;;;;1.45;1.35;;;;;;;20.52;66.56;99071.56;5367436;26;34274;-80
2023/09/22 04:40:39;;;;;;;1.40;0.60;;;;;;;19.89;69.45;99085.56;5329672;26;32554;-80
2023/09/22 04:43:07;;;;;;;1.48;0.95;;;;;;;20.45;66.88;99083.81;5347829;26;32980;-80
2023/09/22 04:45:43;;;;;;;1.33;1.23;;;;;;;20.59;66.49;99080.69;5330715;26;33539;-80
2023/09/22 04:48:13;;;;;;;4.37;1.52;;;;;;;20.52;66.71;99084.97;5367581;26;33979;-80
2023/09/22 04:50:40;;;;;;;7.72;1.65;;;;;;;21.06;65.11;99080.56;5366793;26;33250;-79
2023/09/22 04:53:08;;;;;;;1.25;1.20;;;;;;;20.64;66.24;99085.59;5329425;26;32914;-79
2023/09/22 04:55:37;;;;;;;0.98;0.98;;;;;;;20.86;65.63;99098.62;5348538;26;34034;-79
2023/09/22 04:58:06;;;;;;;1.27;0.68;;;;;;;21.14;64.50;99091.41;5349294;26;34117;-81
2023/09/22 05:00:36;;;;;;;0.75;0.75;;;;;;;20.99;64.78;99098.28;5330003;26;33421;-80
2023/09/22 05:03:05;;;;;;;1.35;1.25;;;;;;;21.04;64.71;99095.16;5330150;26;33775;-80
2023/09/22 05:05:33;;;;;;;1.52;0.82;;;;;;;20.67;65.80;99091.53;5327543;26;33840;-80
2023/09/22 05:08:00;;;;;;;2.20;1.17;;;;;;;20.48;66.73;99094.28;5345800;26;34479;-80
2023/09/22 05:10:31;;;;;;;1.90;0.65;;;;;;;20.66;66.18;99103.25;5363786;26;32335;-80
2023/09/22 05:12:59;;;;;;;1.37;1.27;;;;;;;20.73;66.01;99108.87;5384824;26;33810;-80
2023/09/22 05:15:29;;;;;;;2.45;1.60;;;;;;;20.72;66.08;99107.19;5385114;26;33677;-80
2023/09/22 05:17:57;;;;;;;2.12;0.85;;;;;;;20.77;65.97;99118.31;5345798;26;33081;-80
2023/09/22 05:20:24;;;;;;;1.27;1.17;;;;;;;20.82;66.10;99112.50;5364587;26;32583;-81
2023/09/22 05:22:52;;;;;;;0.80;0.65;;;;;;;20.76;66.46;99113.09;5364901;26;33936;-83
2023/09/22 05:25:20;;;;;;;1.35;0.45;;;;;;;20.81;66.60;99106.28;5364701;26;34989;-80
2023/09/22 05:27:48;;;;;;;0.35;0.35;;;;;;;20.81;66.22;99105.44;5327222;26;32999;-80
2023/09/22 05:30:16;;;;;;;0.60;0.60;;;;;;;20.94;66.19;99105.94;5347667;26;32816;-80
2023/09/22 05:32:45;;;;;;;0.93;0.93;;;;;;;21.09;65.68;99099.06;5348923;26;32828;-80
2023/09/22 05:35:13;;;;;;;1.30;1.17;;;;;;;21.08;66.12;99094.69;5349412;26;34040;-80
2023/09/22 05:37:42;;;;;;;0.25;0.25;;;;;;;20.82;67.12;99086.50;5366620;26;34177;-80
2023/09/22 05:40:14;;;;;;;3.25;2.67;;;;;;;20.92;67.04;99091.81;5349329;26;32707;-80
2023/09/22 05:42:43;;;;;;;0.80;0.77;;;;;;;21.04;66.92;99095.16;5349347;26;34707;-80
2023/09/22 05:45:11;;;;;;;1.35;1.25;;;;;;;20.99;67.09;99089.41;5349229;26;34468;-81
2023/09/22 05:47:39;;;;;;;0.57;0.52;;;;;;;20.96;67.42;99091.38;5330175;26;33164;-80
2023/09/22 05:50:09;;;;;;;0.68;0.68;;;;;;;21.07;66.61;99095.69;5366012;26;33778;-81
2023/09/22 05:52:38;;;;;;;0.75;0.73;;;;;;;21.13;66.96;99100.47;5349193;26;34631;-81
2023/09/22 05:55:10;;;;;;;1.00;0.88;;;;;;;21.38;66.15;99096.22;5349818;26;34074;-80
2023/09/22 05:57:38;;;;;;;3.00;1.87;;;;;;;21.34;66.53;99102.88;5348601;26;32665;-80
2023/09/22 06:00:10;;;;;;;2.03;1.85;;;;;;;21.23;66.83;99101.22;5367795;26;34269;-80
2023/09/22 06:02:38;;;;;;;2.12;1.10;;;;;;;21.93;65.02;99104.09;5367222;26;34587;-80
2023/09/22 06:05:09;;;;;;;1.55;1.02;;;;;;;21.98;64.08;99107.16;5348608;26;34273;-80
2023/09/22 06:07:39;;;;;;;2.08;1.67;;;;;;;22.00;65.07;99106.97;5349845;26;34160;-81
2023/09/22 06:10:09;;;;;;;1.08;0.88;;;;;;;22.28;63.46;99113.09;5330006;26;32512;-82
2023/09/22 06:12:38;;;;;;;0.70;0.70;;;;;;;21.92;64.75;99109.59;5367677;26;34617;-80
2023/09/22 06:15:07;;;;;;;0.45;0.45;;;;;;;22.27;64.01;99115.94;5330424;26;33559;-79
2023/09/22 06:17:36;;;;;;;3.95;1.67;;;;;;;22.08;64.11;99122.34;5348197;26;34127;-80
2023/09/22 06:20:22;;;;;;;6.50;1.83;;;;;;;21.81;65.34;99120.59;5346099;26;33530;-80
2023/09/22 06:22:50;;;;;;;2.37;1.48;;;;;;;22.20;64.17;99119.25;5349000;26;34652;-80
2023/09/22 06:25:19;;;;;;;1.40;1.30;;;;;;;22.26;63.89;99114.25;5364394;26;33525;-80
2023/09/22 06:27:47;;;;;;;4.40;1.23;;;;;;;22.40;62.99;99124.41;5345814;26;34294;-80
2023/09/22 06:30:18;;;;;;;0.85;0.85;;;;;;;22.60;62.60;99117.81;5346445;26;32574;-82
2023/09/22 06:32:46;;;;;;;0.40;0.40;;;;;;;22.86;61.60;99112.38;5364760;26;33640;-80
2023/09/22 06:35:14;;;;;;;0.40;0.40;;;;;;;22.96;61.55;99117.66;5364525;26;33631;-80
2023/09/22 06:37:42;;;;;;;1.20;1.02;;;;;;;22.83;61.55;99128.84;5346188;26;33858;-81
2023/09/22 06:40:16;;;;;;;0.60;0.60;;;;;;;22.70;61.26;99128.47;5346882;26;33122;-83
2023/09/22 06:42:45;;;;;;;0.93;0.75;;;;;;;23.24;60.56;99113.72;5346782;26;33820;-80
2023/09/22 06:45:16;;;;;;;2.53;1.00;;;;;;;23.00;60.70;99125.25;5364632;26;33319;-80
2023/09/22 06:47:44;;;;;;;0.70;0.70;;;;;;;22.90;60.79;99129.09;5347019;26;34760;-79
2023/09/22 06:50:13;;;;;;;0.75;0.75;;;;;;;23.24;59.85;99129.88;5346119;26;33257;-80
2023/09/22 06:52:42;;;;;;;1.27;0.75;;;;;;;23.12;60.27;99128.50;5364802;26;33920;-79
2023/09/22 06:55:13;;;;;;;0.50;0.50;;;;;;;23.02;60.36;99127.78;5327607;26;33068;-80
2023/09/22 06:57:42;;;;;;;1.12;0.80;;;;;;;23.26;59.94;99129.69;5363852;26;33135;-80
2023/09/22 07:00:18;;;;;;;4.07;1.33;;;;;;;23.31;60.04;99123.81;5365312;26;34298;-80
2023/09/22 07:02:47;;;;;;;0.43;0.37;;;;;;;23.20;59.93;99131.19;5347478;26;34028;-80
2023/09/22 07:05:16;;;;;;;2.25;1.00;;;;;;;23.63;59.02;99139.19;5345973;26;33621;-80
2023/09/22 07:07:44;;;;;;;2.35;1.42;;;;;;;23.19;60.47;99142.97;5326489;26;34009;-80
2023/09/22 07:10:13;;;;;;;3.12;0.73;;;;;;;23.30;59.56;99149.06;5364377;26;34068;-80
2023/09/22 07:12:41;;;;;;;0.73;0.73;;;;;;;23.78;58.85;99137.56;5346072;26;32596;-82
2023/09/22 07:15:10;;;;;;;1.95;1.70;;;;;;;24.01;58.07;99141.28;5345315;26;33861;-80
2023/09/22 07:17:40;;;;;;;0.93;0.88;;;;;;;23.69;58.57;99146.66;5326616;26;32759;-80
2023/09/22 07:20:13;;;;;;;0.52;0.52;;;;;;;24.01;57.61;99140.44;5346053;26;33896;-79
2023/09/22 07:22:44;;;;;;;5.70;1.60;;;;;;;24.42;56.89;99143.12;5345587;26;33230;-80
2023/09/22 07:25:14;;;;;;;1.65;0.75;;;;;;;24.22;57.14;99140.78;5327511;26;32963;-80
2023/09/22 07:27:43;;;;;;;0.37;0.37;;;;;;;24.37;56.81;99140.09;5326473;26;34007;-80
2023/09/22 07:30:12;;;;;;;2.22;0.85;;;;;;;24.26;56.27;99131.31;5345629;26;33547;-81
2023/09/22 07:32:40;;;;;;;13.77;0.95;;;;;;;24.25;56.54;99136.88;5364222;26;34328;-80
2023/09/22 07:35:09;;;;;;;3.33;1.58;;;;;;;24.14;56.40;99137.22;5364573;26;33557;-81
2023/09/22 07:37:37;;;;;;;1.17;1.00;;;;;;;24.16;56.97;99149.53;5364398;26;34120;-80
2023/09/22 07:40:08;;;;;;;5.40;1.98;;;;;;;24.13;56.89;99147.19;5344988;26;33731;-81
2023/09/22 07:42:39;;;;;;;0.30;0.30;;;;;;;24.41;56.30;99150.38;5366965;26;33730;-80
2023/09/22 07:45:08;;;;;;;1.17;0.73;;;;;;;24.48;55.97;99147.84;5366512;26;34023;-80
2023/09/22 07:47:37;;;;;;;3.50;1.40;;;;;;;24.12;56.72;99168.91;5367475;26;34844;-80
2023/09/22 07:50:06;;;;;;;0.62;0.62;;;;;;;24.33;56.13;99163.00;5347493;26;33095;-81
2023/09/22 07:52:34;;;;;;;2.22;1.70;;;;;;;24.52;56.08;99159.97;5348561;26;35013;-81
2023/09/22 07:55:02;;;;;;;0.75;0.75;;;;;;;24.62;56.14;99159.78;5348686;26;33234;-80
2023/09/22 07:57:31;;;;;;;2.35;2.03;;;;;;;24.69;55.37;99161.63;5366062;26;33880;-80
2023/09/22 07:59:59;;;;;;;1.95;0.88;;;;;;;24.73;55.39;99157.53;5366723;26;32561;-81
2023/09/22 08:02:37;;;;;;;0.70;0.70;;;;;;;25.22;54.21;99159.25;5350403;26;32516;-80
2023/09/22 08:05:06;;;;;;;0.82;0.82;;;;;;;25.03;54.46;99158.62;5367382;26;34908;-81
2023/09/22 08:07:33;;;;;;;0.80;0.80;;;;;;;25.04;54.55;99159.47;5386668;26;33738;-81
2023/09/22 08:10:01;;;;;;;0.77;0.77;;;;;;;25.34;54.15;99154.28;5365854;26;34434;-81
2023/09/22 08:12:31;;;;;;;0.85;0.70;;;;;;;25.49;53.45;99149.81;5348810;26;35330;-80
2023/09/22 08:14:59;;;;;;;3.20;1.33;;;;;;;25.39;53.69;99151.91;5348407;26;33907;-81
2023/09/22 08:17:27;;;;;;;3.20;1.75;;;;;;;25.42;53.71;99167.75;5329827;26;33040;-81
2023/09/22 08:19:55;;;;;;;3.10;2.78;;;;;;;25.55;53.93;99162.63;5367262;26;33186;-81
2023/09/22 08:22:25;;;;;;;3.90;1.62;;;;;;;25.70;53.53;99158.12;5348984;26;32749;-80
2023/09/22 08:24:53;;;;;;;3.17;1.45;;;;;;;25.57;53.46;99160.56;5388034;26;34863;-81
2023/09/22 08:27:22;;;;;;;1.27;0.73;;;;;;;25.73;52.94;99154.19;5350225;26;33179;-81
2023/09/22 08:29:50;;;;;;;0.50;0.47;;;;;;;25.89;52.83;99153.28;5368330;26;33237;-81
2023/09/22 08:32:17;;;;;;;0.95;0.88;;;;;;;26.07;52.97;99151.12;5346417;26;33854;-80
2023/09/22 08:34:46;;;;;;;5.45;0.65;;;;;;;26.25;52.12;99150.75;5328456;26;33829;-81
2023/09/22 08:37:13;;;;;;;3.33;1.90;;;;;;;26.32;51.83;99164.44;5365940;26;34170;-81
2023/09/22 08:39:42;;;;;;;2.60;1.23;;;;;;;26.79;49.60;99158.72;5346768;26;34140;-81
2023/09/22 08:42:10;;;;;;;1.92;1.23;;;;;;;26.85;49.92;99155.25;5347214;26;32783;-80
2023/09/22 08:44:39;;;;;;;0.65;0.55;;;;;;;26.28;50.38;99153.97;5366164;26;33641;-81
2023/09/22 08:47:07;;;;;;;1.92;1.48;;;;;;;26.62;50.04;99149.91;5328460;26;33575;-81
2023/09/22 08:49:35;;;;;;;0.43;0.43;;;;;;;26.78;50.11;99155.16;5386046;26;33607;-80
2023/09/22 08:52:02;;;;;;;0.82;0.62;;;;;;;27.08;49.31;99152.47;5345634;26;33299;-81
2023/09/22 08:54:30;;;;;;;0.73;0.73;;;;;;;27.11;48.50;99152.09;5364869;26;33935;-81
2023/09/22 08:56:58;;;;;;;1.20;1.12;;;;;;;27.07;49.33;99161.59;5364968;26;35862;-81
2023/09/22 08:59:27;;;;;;;1.65;1.55;;;;;;;27.07;49.35;99153.47;5346535;26;33219;-80
2023/09/22 09:01:55;;;;;;;1.95;1.20;;;;;;;27.14;48.29;99159.84;5386072;26;33585;-81
2023/09/22 09:04:37;;;;;;;2.55;1.52;;;;;;;27.68;48.69;99156.72;5365736;26;33910;-81
2023/09/22 09:07:06;;;;;;;1.73;1.30;;;;;;;27.67;47.33;99146.87;5347266;26;34367;-81
2023/09/22 09:09:45;;;;;;;0.45;0.45;;;;;;;28.01;47.96;99142.66;5346318;26;32959;-81
2023/09/22 09:12:14;;;;;;;1.05;0.82;;;;;;;28.19;46.96;99134.88;5365114;26;32948;-80
2023/09/22 09:14:46;;;;;;;0.37;0.37;;;;;;;28.41;46.12;99134.88;5365251;26;33712;-80
2023/09/22 09:17:22;;;;;;;2.12;1.92;;;;;;;28.18;45.90;99135.91;5346720;26;33664;-81
2023/09/22 09:20:01;;;;;;;2.03;1.45;;;;;;;28.75;45.88;99132.16;5346358;26;33407;-81
2023/09/22 09:22:35;;;;;;;0.90;0.68;;;;;;;28.72;43.98;99129.88;5327376;26;32631;-81
2023/09/22 09:25:09;;;;;;;0.90;0.85;;;;;;;29.17;43.69;99130.31;5347970;26;34541;-80
2023/09/22 09:27:36;;;;;;;2.67;0.77;;;;;;;29.12;41.91;99121.94;5328611;26;33021;-80
2023/09/22 09:30:11;;;;;;;2.20;1.02;;;;;;;29.40;41.77;99115.53;5346134;26;32907;-80
2023/09/22 09:32:40;;;;;;;0.47;0.45;;;;;;;29.20;41.88;99120.88;5365890;26;33295;-80
2023/09/22 09:35:09;;;;;;;2.40;1.17;;;;;;;28.93;42.03;99128.09;5346503;26;34043;-80
2023/09/22 09:37:36;;;;;;;5.07;0.70;;;;;;;28.66;41.50;99122.50;5365152;26;33159;-80
2023/09/22 09:40:10;;;;;;;10.25;1.77;;;;;;;28.76;42.00;99113.97;5346561;26;33477;-80
2023/09/22 09:42:41;;;;;;;4.90;1.25;;;;;;;29.07;40.91;99114.38;5347963;26;33162;-80
2023/09/22 09:45:09;;;;;;;0.30;0.30;;;;;;;29.21;41.54;99109.81;5346276;26;33249;-80
2023/09/22 09:47:42;;;;;;;5.15;2.22;;;;;;;28.98;41.23;99109.31;5346891;26;32793;-81
2023/09/22 09:50:12;;;;;;;5.30;1.42;;;;;;;28.98;41.14;99098.44;5347138;26;33030;-80
2023/09/22 09:52:53;;;;;;;3.60;1.48;;;;;;;28.73;41.73;99095.38;5347263;26;33229;-80
2023/09/22 09:55:21;;;;;;;2.47;1.70;;;;;;;28.96;40.88;99103.22;5347241;26;34816;-80
2023/09/22 09:57:52;;;;;;;0.73;0.73;;;;;;;29.09;40.89;99089.69;5365685;26;33537;-80
2023/09/22 10:00:20;;;;;;;0.45;0.45;;;;;;;29.45;39.96;99083.97;5347138;26;33722;-80
2023/09/22 10:02:50;;;;;;;0.20;0.20;;;;;;;29.19;39.90;99084.72;5364785;26;32951;-80
2023/09/22 10:05:20;;;;;;;1.48;1.02;;;;;;;28.98;40.71;99079.41;5346963;26;33652;-81
2023/09/22 10:07:50;;;;;;;4.18;0.85;;;;;;;29.06;40.27;99079.25;5365377;26;34247;-80
2023/09/22 10:10:20;;;;;;;3.30;0.80;;;;;;;29.32;39.81;99079.31;5346666;26;32693;-80
2023/09/22 10:12:48;;;;;;;0.40;0.30;;;;;;;29.50;40.27;99075.19;5365347;26;33515;-80
2023/09/22 10:15:54;;;;;;;0.60;0.55;;;;;;;29.81;38.93;99066.44;5346879;26;32942;-80
2023/09/22 10:18:46;;;;;;;4.60;0.82;;;;;;;29.68;39.64;99078.16;5365038;26;34207;-83
2023/09/22 10:21:43;;;;;;;6.55;0.93;;;;;;;29.49;39.70;99057.19;5328090;26;34071;-80
2023/09/22 10:24:19;;;;;;;0.32;0.32;;;;;;;29.73;39.09;99070.22;5348034;26;34724;-80
2023/09/22 10:26:54;;;;;;;2.55;0.60;;;;;;;29.43;39.08;99069.72;5365076;26;33613;-80
2023/09/22 10:29:34;;;;;;;0.88;0.80;;;;;;;29.84;38.92;99066.84;5364290;26;34132;-80
2023/09/22 10:34:49;;;;;;;0.45;0.40;;;;;;;29.55;38.65;99068.09;5384629;26;34771;-80
2023/09/22 10:37:20;;;;;;;0.98;0.68;;;;;;;29.76;38.20;99053.47;5346720;26;34755;-80
2023/09/22 10:39:50;;;;;;;0.37;0.37;;;;;;;29.90;38.20;99054.28;5345448;26;33164;-81
2023/09/22 10:42:20;;;;;;;1.35;0.90;;;;;;;29.90;38.37;99051.56;5345695;26;32705;-80
2023/09/22 10:45:02;;;;;;;11.00;1.02;;;;;;;29.60;38.46;99051.16;5346188;26;33368;-80
2023/09/22 10:47:57;;;;;;;0.62;0.60;;;;;;;29.81;37.60;99050.09;5347312;26;33812;-80
2023/09/22 10:50:30;;;;;;;4.30;1.10;;;;;;;29.93;37.32;99047.59;5329724;26;33579;-80
2023/09/22 10:53:04;;;;;;;4.78;1.10;;;;;;;29.96;36.93;99047.16;5346493;26;32775;-80
2023/09/22 10:55:37;;;;;;;0.47;0.45;;;;;;;30.37;36.93;99048.81;5328009;26;33103;-80
2023/09/22 10:58:14;;;;;;;0.15;0.15;;;;;;;30.23;36.28;99048.84;5345607;26;34684;-81
2023/09/22 11:01:00;;;;;;;0.62;0.62;;;;;;;30.00;36.53;99048.44;5346518;26;34235;-80
2023/09/22 11:03:29;;;;;;;0.75;0.47;;;;;;;30.38;36.48;99045.03;5346230;26;33345;-80
2023/09/22 11:06:06;;;;;;;0.75;0.75;;;;;;;30.42;35.87;99043.56;5346465;26;33730;-81
2023/09/22 11:08:50;;;;;;;0.43;0.43;;;;;;;30.03;35.96;99032.50;5366016;26;34684;-80
2023/09/22 11:11:19;;;;;;;2.10;0.82;;;;;;;30.57;34.35;99041.44;5346111;26;33193;-80
2023/09/22 11:13:52;;;;;;;0.13;0.13;;;;;;;30.85;33.22;99031.06;5365175;26;33424;-80
2023/09/22 11:16:21;;;;;;;0.30;0.30;;;;;;;30.67;33.68;99036.38;5385375;26;34556;-80
2023/09/22 11:18:50;;;;;;;0.20;0.10;;;;;;;31.39;33.39;99028.94;5346525;26;35845;-80
2023/09/22 11:21:18;;;;;;;4.03;0.73;;;;;;;31.22;32.92;99034.03;5346013;26;33135;-80
2023/09/22 11:23:46;;;;;;;0.25;0.25;;;;;;;31.81;33.22;99024.63;5327728;26;33383;-80
2023/09/22 11:26:14;;;;;;;7.32;0.90;;;;;;;32.13;32.68;99017.19;5364683;26;34901;-81
2023/09/22 11:28:45;;;;;;;0.20;0.20;;;;;;;32.20;32.68;99019.03;5346152;26;34398;-80
2023/09/22 11:31:20;;;;;;;0.40;0.40;;;;;;;31.74;31.93;99017.53;5346143;26;34287;-80
2023/09/22 11:34:01;;;;;;;4.70;1.12;;;;;;;31.62;32.10;99012.81;5326953;26;31501;-80
2023/09/22 11:36:52;;;;;;;1.17;1.12;;;;;;;31.83;31.99;99017.06;5346093;26;33907;-81
2023/09/22 11:39:26;;;;;;;7.40;1.17;;;;;;;31.65;32.23;99030.63;5346735;26;33596;-80
2023/09/22 11:41:57;;;;;;;4.12;0.60;;;;;;;31.66;32.32;99024.09;5344474;26;33074;-80
2023/09/22 11:44:25;;;;;;;0.45;0.32;;;;;;;31.43;31.71;99023.84;5358186;26;34003;-80
2023/09/22 11:46:53;;;;;;;3.58;1.37;;;;;;;31.29;32.39;99037.59;5341199;26;33673;-79
2023/09/22 11:49:21;;;;;;;10.40;1.05;;;;;;;31.51;32.11;99037.22;5323908;26;32994;-80